createdAt,value
2022-08-28T00:00:25.392Z,20.01
2022-08-28T00:02:52.882Z,19.94
2022-08-28T00:05:21.161Z,19.91
2022-08-28T00:07:48.161Z,19.96
2022-08-28T00:10:17.028Z,20.02
2022-08-28T00:12:45.004Z,19.95
2022-08-28T00:15:16.269Z,19.81
2022-08-28T00:17:43.385Z,19.82
2022-08-28T00:20:11.635Z,19.80
2022-08-28T00:22:38.939Z,19.56
2022-08-28T00:25:07.821Z,19.53
2022-08-28T00:27:52.708Z,19.37
2022-08-28T00:30:31.779Z,19.41
2022-08-28T00:33:01.858Z,19.42
2022-08-28T00:35:29.029Z,19.40
2022-08-28T00:37:58.088Z,19.36
2022-08-28T00:40:30.606Z,19.44
2022-08-28T00:43:01.431Z,19.54
2022-08-28T00:45:28.756Z,19.30
2022-08-28T00:47:55.419Z,19.27
2022-08-28T00:50:27.197Z,19.30
2022-08-28T00:52:58.477Z,19.33
2022-08-28T00:55:27.122Z,19.25
2022-08-28T00:57:56.984Z,19.23
2022-08-28T01:00:32.368Z,19.19
2022-08-28T01:02:59.181Z,19.23
2022-08-28T01:05:27.039Z,19.24
2022-08-28T01:07:54.429Z,19.00
2022-08-28T01:10:22.876Z,18.85
2022-08-28T01:12:50.295Z,18.94
2022-08-28T01:15:19.871Z,19.04
2022-08-28T01:17:49.649Z,19.09
2022-08-28T01:20:19.639Z,19.02
2022-08-28T01:22:54.121Z,18.98
2022-08-28T01:25:22.309Z,18.88
2022-08-28T01:27:49.080Z,18.89
2022-08-28T01:30:19.769Z,18.81
2022-08-28T01:32:49.564Z,18.70
2022-08-28T01:35:20.397Z,18.67
2022-08-28T01:37:47.544Z,18.67
2022-08-28T01:40:18.277Z,18.80
2022-08-28T01:42:45.088Z,18.87
2022-08-28T01:45:14.857Z,18.87
2022-08-28T01:47:43.323Z,18.87
2022-08-28T01:50:12.526Z,18.85
2022-08-28T01:52:39.441Z,18.93
2022-08-28T01:55:07.383Z,18.84
2022-08-28T01:57:34.385Z,18.81
2022-08-28T02:00:01.258Z,18.72
2022-08-28T02:02:28.004Z,18.61
2022-08-28T02:04:54.690Z,18.61
2022-08-28T02:07:21.607Z,18.72
2022-08-28T02:09:48.320Z,18.77
2022-08-28T02:12:15.188Z,18.66
2022-08-28T02:14:41.909Z,18.74
2022-08-28T02:17:08.607Z,18.87
2022-08-28T02:19:35.556Z,18.89
2022-08-28T02:22:04.120Z,18.90
2022-08-28T02:24:30.857Z,18.90
2022-08-28T02:26:57.648Z,18.84
2022-08-28T02:29:26.236Z,18.72
2022-08-28T02:31:53.083Z,18.75
2022-08-28T02:34:19.853Z,18.66
2022-08-28T02:36:46.483Z,18.62
2022-08-28T02:39:14.078Z,18.68
2022-08-28T02:41:40.892Z,18.72
2022-08-28T02:44:07.554Z,18.52
2022-08-28T02:46:34.296Z,18.48
2022-08-28T02:49:01.040Z,18.24
2022-08-28T02:51:31.167Z,18.29
2022-08-28T02:53:57.803Z,18.33
2022-08-28T02:56:24.881Z,18.27
2022-08-28T02:58:51.826Z,18.22
2022-08-28T03:01:20.723Z,18.25
2022-08-28T03:03:47.765Z,18.27
2022-08-28T03:06:14.653Z,18.19
2022-08-28T03:08:42.200Z,18.35
2022-08-28T03:11:09.299Z,18.23
2022-08-28T03:13:36.058Z,18.13
2022-08-28T03:16:04.862Z,18.06
2022-08-28T03:18:33.281Z,17.97
2022-08-28T03:21:00.479Z,17.95
2022-08-28T03:23:27.471Z,17.88
2022-08-28T03:26:00.173Z,17.90
2022-08-28T03:28:28.574Z,17.86
2022-08-28T03:30:55.469Z,17.77
2022-08-28T03:33:22.556Z,17.78
2022-08-28T03:35:50.092Z,17.89
2022-08-28T03:38:17.880Z,17.83
2022-08-28T03:40:46.382Z,17.83
2022-08-28T03:43:15.552Z,17.89
2022-08-28T03:45:52.152Z,17.92
2022-08-28T03:48:20.205Z,18.04
2022-08-28T03:50:47.759Z,18.06
2022-08-28T03:53:16.014Z,17.90
2022-08-28T03:55:42.984Z,17.84
2022-08-28T03:58:09.737Z,17.87
2022-08-28T04:00:46.303Z,17.97
2022-08-28T04:03:13.610Z,18.02
2022-08-28T04:05:41.741Z,18.10
2022-08-28T04:08:08.948Z,18.14
2022-08-28T04:10:36.851Z,18.13
2022-08-28T04:13:03.874Z,18.13
2022-08-28T04:15:30.607Z,18.14
2022-08-28T04:17:57.579Z,18.11
2022-08-28T04:20:24.336Z,17.99
2022-08-28T04:22:55.064Z,17.94
2022-08-28T04:25:23.735Z,17.85
2022-08-28T04:27:52.149Z,17.75
2022-08-28T04:30:19.143Z,17.77
2022-08-28T04:32:45.825Z,17.78
2022-08-28T04:35:13.541Z,17.91
2022-08-28T04:37:40.903Z,17.95
2022-08-28T04:40:11.014Z,17.97
2022-08-28T04:42:38.688Z,18.00
2022-08-28T04:45:06.505Z,17.99
2022-08-28T04:47:38.064Z,17.86
2022-08-28T04:50:06.517Z,17.92
2022-08-28T04:52:33.404Z,17.91
2022-08-28T04:55:00.164Z,17.87
2022-08-28T04:57:26.914Z,17.72
2022-08-28T04:59:53.896Z,17.74
2022-08-28T05:02:20.590Z,17.82
2022-08-28T05:04:47.442Z,17.90
2022-08-28T05:07:14.374Z,17.88
2022-08-28T05:09:41.141Z,17.87
2022-08-28T05:12:07.922Z,17.76
2022-08-28T05:14:36.724Z,17.76
2022-08-28T05:17:03.432Z,17.76
2022-08-28T05:19:30.297Z,17.73
2022-08-28T05:21:57.124Z,17.68
2022-08-28T05:24:23.929Z,17.67
2022-08-28T05:26:50.614Z,17.74
2022-08-28T05:29:17.442Z,17.63
2022-08-28T05:31:44.708Z,17.71
2022-08-28T05:34:13.135Z,17.88
2022-08-28T05:36:40.280Z,17.98
2022-08-28T05:39:09.906Z,17.94
2022-08-28T05:41:37.113Z,17.87
2022-08-28T05:44:07.071Z,17.83
2022-08-28T05:46:35.998Z,17.82
2022-08-28T05:49:06.626Z,17.99
2022-08-28T05:51:36.340Z,18.04
2022-08-28T05:54:03.936Z,18.05
2022-08-28T05:56:32.895Z,18.10
2022-08-28T05:59:01.104Z,18.22
2022-08-28T06:01:30.542Z,18.22
2022-08-28T06:04:09.263Z,18.15
2022-08-28T06:06:39.381Z,18.09
2022-08-28T06:09:14.082Z,18.07
2022-08-28T06:11:46.149Z,17.92
2022-08-28T06:14:15.770Z,18.02
2022-08-28T06:16:45.976Z,18.14
2022-08-28T06:19:13.397Z,18.15
2022-08-28T06:21:41.665Z,18.09
2022-08-28T06:24:10.194Z,18.17
2022-08-28T06:26:37.159Z,18.10
2022-08-28T06:29:10.842Z,18.09
2022-08-28T06:31:37.776Z,18.17
2022-08-28T06:34:04.791Z,18.18
2022-08-28T06:36:34.634Z,18.30
2022-08-28T06:39:04.116Z,18.23
2022-08-28T06:41:32.520Z,18.27
2022-08-28T06:43:59.644Z,18.31
2022-08-28T06:46:27.004Z,18.36
2022-08-28T06:48:53.796Z,18.32
2022-08-28T06:51:20.585Z,18.41
2022-08-28T06:53:51.662Z,18.47
2022-08-28T06:56:25.907Z,18.37
2022-08-28T06:58:54.360Z,18.36
2022-08-28T07:01:29.389Z,18.41
2022-08-28T07:04:02.449Z,18.47
2022-08-28T07:06:32.658Z,18.50
2022-08-28T07:08:59.344Z,18.64
2022-08-28T07:11:28.939Z,18.55
2022-08-28T07:13:56.682Z,18.49
2022-08-28T07:16:27.520Z,18.59
2022-08-28T07:18:54.492Z,18.68
2022-08-28T07:21:21.524Z,18.72
2022-08-28T07:23:48.819Z,18.75
2022-08-28T07:26:19.588Z,18.75
2022-08-28T07:28:48.195Z,18.80
2022-08-28T07:31:22.021Z,18.89
2022-08-28T07:33:50.818Z,18.93
2022-08-28T07:36:29.788Z,18.92
2022-08-28T07:38:58.181Z,18.95
2022-08-28T07:41:31.703Z,19.02
2022-08-28T07:44:17.521Z,18.97
2022-08-28T07:46:47.583Z,18.93
2022-08-28T07:49:17.264Z,18.96
2022-08-28T07:51:46.736Z,18.87
2022-08-28T07:54:18.255Z,18.95
2022-08-28T07:56:46.104Z,19.04
2022-08-28T07:59:16.603Z,19.15
2022-08-28T08:01:46.737Z,19.25
2022-08-28T08:04:16.334Z,19.32
2022-08-28T08:06:44.055Z,19.25
2022-08-28T08:09:14.113Z,19.34
2022-08-28T08:11:41.330Z,19.47
2022-08-28T08:14:08.505Z,19.60
2022-08-28T08:16:39.219Z,19.64
2022-08-28T08:19:09.877Z,19.67
2022-08-28T08:21:37.628Z,19.63
2022-08-28T08:24:05.094Z,19.43
2022-08-28T08:26:32.675Z,19.31
2022-08-28T08:28:59.768Z,19.38
2022-08-28T08:31:29.700Z,19.50
2022-08-28T08:33:59.363Z,19.54
2022-08-28T08:36:27.268Z,19.59
2022-08-28T08:38:59.340Z,19.63
2022-08-28T08:41:39.484Z,19.67
2022-08-28T08:44:15.138Z,19.74
2022-08-28T08:46:42.036Z,19.78
2022-08-28T08:49:22.577Z,19.84
2022-08-28T08:52:13.443Z,19.92
2022-08-28T08:54:45.087Z,19.99
2022-08-28T08:57:14.455Z,20.01
2022-08-28T08:59:41.948Z,20.04
2022-08-28T09:02:14.989Z,20.00
2022-08-28T09:04:56.439Z,19.80
2022-08-28T09:07:31.887Z,19.88
2022-08-28T09:09:58.638Z,19.98
2022-08-28T09:12:30.818Z,20.10
2022-08-28T09:15:05.829Z,20.20
2022-08-28T09:17:37.607Z,20.23
2022-08-28T09:20:10.230Z,20.36
2022-08-28T09:22:38.763Z,20.25
2022-08-28T09:25:06.352Z,20.44
2022-08-28T09:27:39.573Z,20.60
2022-08-28T09:30:09.037Z,20.55
2022-08-28T09:32:44.718Z,20.60
2022-08-28T09:35:28.600Z,20.88
2022-08-28T09:37:58.808Z,21.11
2022-08-28T09:40:48.012Z,21.33
2022-08-28T09:43:36.982Z,21.51
2022-08-28T09:46:08.241Z,21.70
2022-08-28T09:48:43.736Z,21.96
2022-08-28T09:51:14.810Z,22.15
2022-08-28T09:53:50.705Z,22.25
2022-08-28T09:56:31.532Z,22.19
2022-08-28T09:59:05.877Z,22.14
2022-08-28T10:01:35.513Z,22.17
2022-08-28T10:04:15.644Z,22.05
2022-08-28T10:06:49.634Z,21.92
2022-08-28T10:09:45.124Z,22.13
2022-08-28T10:12:26.832Z,22.58
2022-08-28T10:15:12.303Z,23.05
2022-08-28T10:17:48.722Z,23.17
2022-08-28T10:20:26.725Z,23.35
2022-08-28T10:23:03.765Z,23.42
2022-08-28T10:25:54.450Z,23.53
2022-08-28T10:28:40.644Z,23.80
2022-08-28T10:32:03.802Z,24.15
2022-08-28T10:34:52.297Z,24.37
2022-08-28T10:37:38.432Z,24.58
2022-08-28T10:40:18.539Z,24.94
2022-08-28T10:43:05.318Z,25.22
2022-08-28T10:45:33.387Z,25.38
2022-08-28T10:48:28.558Z,25.00
2022-08-28T10:51:05.332Z,24.29
2022-08-28T10:53:35.065Z,24.32
2022-08-28T10:56:07.527Z,24.66
2022-08-28T10:58:37.657Z,25.14
2022-08-28T11:01:11.425Z,25.43
2022-08-28T11:03:43.686Z,25.13
2022-08-28T11:06:25.548Z,25.59
2022-08-28T11:08:55.353Z,25.79
2022-08-28T11:12:09.718Z,25.71
2022-08-28T11:14:47.807Z,25.69
2022-08-28T11:17:30.678Z,25.77
2022-08-28T11:20:09.598Z,25.98
2022-08-28T11:22:41.862Z,26.17
2022-08-28T11:25:26.531Z,26.29
2022-08-28T11:28:19.825Z,26.18
2022-08-28T11:30:49.040Z,26.18
2022-08-28T11:33:36.061Z,26.35
2022-08-28T11:36:03.935Z,26.37
2022-08-28T11:38:43.444Z,26.60
2022-08-28T11:41:34.604Z,26.18
2022-08-28T11:44:04.489Z,26.20
2022-08-28T11:46:38.593Z,26.22
2022-08-28T11:49:26.778Z,26.30
2022-08-28T11:52:14.831Z,26.44
2022-08-28T11:54:54.423Z,26.26
2022-08-28T11:57:25.973Z,26.01
2022-08-28T12:00:05.385Z,25.72
2022-08-28T12:02:41.311Z,25.21
2022-08-28T12:05:34.163Z,25.22
2022-08-28T12:08:02.800Z,25.32
2022-08-28T12:10:34.694Z,25.36
2022-08-28T12:13:07.537Z,25.50
2022-08-28T12:15:34.501Z,25.39
2022-08-28T12:18:39.102Z,25.45
2022-08-28T12:21:07.554Z,25.87
2022-08-28T12:23:37.257Z,26.03
2022-08-28T12:26:32.793Z,25.71
2022-08-28T12:29:31.909Z,25.69
2022-08-28T12:32:13.850Z,25.17
2022-08-28T12:34:58.843Z,25.10
2022-08-28T12:37:52.048Z,25.15
2022-08-28T12:40:19.764Z,25.37
2022-08-28T12:42:55.246Z,25.60
2022-08-28T12:45:43.312Z,25.76
2022-08-28T12:48:28.183Z,25.87
2022-08-28T12:51:10.697Z,26.00
2022-08-28T12:53:47.963Z,25.47
2022-08-28T12:56:17.966Z,25.44
2022-08-28T12:58:45.777Z,25.57
2022-08-28T13:01:21.815Z,25.80
2022-08-28T13:03:59.705Z,25.95
2022-08-28T13:06:31.759Z,25.98
2022-08-28T13:09:05.028Z,25.65
2022-08-28T13:11:38.757Z,25.04
2022-08-28T13:14:09.590Z,24.99
2022-08-28T13:17:04.494Z,24.90
2022-08-28T13:19:32.816Z,24.76
2022-08-28T13:22:31.650Z,25.14
2022-08-28T13:25:05.613Z,25.55
2022-08-28T13:27:32.727Z,25.61
2022-08-28T13:30:21.256Z,25.26
2022-08-28T13:33:20.890Z,25.08
2022-08-28T13:35:48.867Z,25.03
2022-08-28T13:38:17.921Z,25.11
2022-08-28T13:40:59.337Z,25.18
2022-08-28T13:43:29.280Z,25.49
2022-08-28T13:47:09.873Z,25.84
2022-08-28T13:49:28.484Z,25.72
2022-08-28T13:51:59.763Z,25.76
2022-08-28T13:54:27.267Z,25.86
2022-08-28T13:56:55.453Z,25.97
2022-08-28T13:59:23.515Z,26.04
2022-08-28T14:02:11.824Z,26.04
2022-08-28T14:04:38.576Z,26.03
2022-08-28T14:07:05.378Z,25.65
2022-08-28T14:09:32.650Z,25.15
2022-08-28T14:12:00.227Z,25.24
2022-08-28T14:14:27.028Z,25.46
2022-08-28T14:16:54.475Z,25.81
2022-08-28T14:19:21.816Z,26.06
2022-08-28T14:21:48.892Z,25.98
2022-08-28T14:24:15.871Z,25.70
2022-08-28T14:26:42.755Z,25.43
2022-08-28T14:29:11.929Z,25.16
2022-08-28T14:31:41.161Z,25.14
2022-08-28T14:34:09.829Z,25.45
2022-08-28T14:36:42.607Z,25.66
2022-08-28T14:39:10.897Z,25.92
2022-08-28T14:41:37.926Z,26.12
2022-08-28T14:44:04.908Z,26.10
2022-08-28T14:46:36.930Z,25.94
2022-08-28T14:49:07.369Z,25.56
2022-08-28T14:51:35.748Z,25.40
2022-08-28T14:54:03.078Z,25.53
2022-08-28T14:56:31.626Z,25.84
2022-08-28T14:59:03.487Z,25.85
2022-08-28T15:01:41.248Z,25.90
2022-08-28T15:04:11.523Z,26.08
2022-08-28T15:06:42.623Z,26.08
2022-08-28T15:09:11.372Z,26.15
2022-08-28T15:11:38.555Z,26.15
2022-08-28T15:14:06.664Z,26.24
2022-08-28T15:16:46.891Z,26.41
2022-08-28T15:19:18.108Z,26.32
2022-08-28T15:21:55.479Z,26.29
2022-08-28T15:24:28.819Z,26.36
2022-08-28T15:26:59.056Z,26.28
2022-08-28T15:29:27.622Z,25.80
2022-08-28T15:31:54.607Z,25.60
2022-08-28T15:34:26.748Z,25.66
2022-08-28T15:36:58.852Z,25.61
2022-08-28T15:39:48.701Z,26.06
2022-08-28T15:42:16.094Z,26.36
2022-08-28T15:44:43.269Z,26.37
2022-08-28T15:47:14.356Z,26.44
2022-08-28T15:49:53.608Z,26.38
2022-08-28T15:52:20.740Z,26.34
2022-08-28T15:54:53.448Z,26.27
2022-08-28T15:57:20.476Z,26.24
2022-08-28T15:59:48.991Z,26.29
2022-08-28T16:02:21.196Z,26.39
2022-08-28T16:04:48.722Z,26.31
2022-08-28T16:07:15.609Z,26.30
2022-08-28T16:09:42.441Z,26.08
2022-08-28T16:12:09.287Z,26.06
2022-08-28T16:14:36.333Z,26.01
2022-08-28T16:17:05.857Z,26.17
2022-08-28T16:19:39.862Z,26.38
2022-08-28T16:22:16.056Z,26.34
2022-08-28T16:24:51.361Z,26.32
2022-08-28T16:27:18.434Z,26.47
2022-08-28T16:29:45.574Z,26.38
2022-08-28T16:32:12.940Z,26.10
2022-08-28T16:34:40.102Z,26.14
2022-08-28T16:37:08.044Z,26.26
2022-08-28T16:39:35.522Z,25.97
2022-08-28T16:42:02.193Z,25.83
2022-08-28T16:44:29.081Z,25.92
2022-08-28T16:46:56.324Z,25.88
2022-08-28T16:49:23.984Z,26.07
2022-08-28T16:51:51.044Z,26.07
2022-08-28T16:54:18.443Z,26.08
2022-08-28T16:56:45.969Z,26.20
2022-08-28T16:59:16.592Z,26.23
2022-08-28T17:01:43.669Z,25.91
2022-08-28T17:04:12.443Z,25.49
2022-08-28T17:06:56.989Z,25.53
2022-08-28T17:09:24.140Z,25.54
2022-08-28T17:11:57.435Z,25.63
2022-08-28T17:14:26.459Z,25.61
2022-08-28T17:16:53.317Z,25.51
2022-08-28T17:19:24.528Z,24.98
2022-08-28T17:22:10.283Z,24.36
2022-08-28T17:24:37.037Z,24.09
2022-08-28T17:27:05.911Z,23.85
2022-08-28T17:29:34.742Z,23.74
2022-08-28T17:32:02.011Z,23.61
2022-08-28T17:34:30.458Z,23.66
2022-08-28T17:36:57.638Z,23.51
2022-08-28T17:39:25.497Z,23.46
2022-08-28T17:41:52.228Z,23.33
2022-08-28T17:44:18.974Z,23.30
2022-08-28T17:46:46.100Z,23.24
2022-08-28T17:49:12.809Z,23.19
2022-08-28T17:51:42.869Z,23.25
2022-08-28T17:54:15.512Z,23.38
2022-08-28T17:56:42.682Z,23.40
2022-08-28T17:59:11.474Z,23.16
2022-08-28T18:01:38.671Z,23.11
2022-08-28T18:04:14.221Z,23.18
2022-08-28T18:06:41.071Z,23.27
2022-08-28T18:09:09.005Z,23.22
2022-08-28T18:11:35.801Z,23.12
2022-08-28T18:14:02.626Z,23.15
2022-08-28T18:16:41.901Z,23.15
2022-08-28T18:19:10.413Z,23.01
2022-08-28T18:21:38.625Z,22.92
2022-08-28T18:24:06.017Z,22.97
2022-08-28T18:26:33.573Z,22.95
2022-08-28T18:29:00.231Z,22.88
2022-08-28T18:31:27.022Z,22.92
2022-08-28T18:33:54.500Z,22.96
2022-08-28T18:36:23.201Z,22.96
2022-08-28T18:38:50.655Z,22.81
2022-08-28T18:41:17.483Z,22.67
2022-08-28T18:43:44.363Z,22.43
2022-08-28T18:46:11.768Z,22.42
2022-08-28T18:48:38.649Z,22.38
2022-08-28T18:51:07.923Z,22.44
2022-08-28T18:53:34.816Z,22.32
2022-08-28T18:56:02.658Z,22.17
2022-08-28T18:58:31.458Z,22.18
2022-08-28T19:01:00.213Z,22.21
2022-08-28T19:03:26.988Z,22.26
2022-08-28T19:05:55.095Z,22.23
2022-08-28T19:08:22.993Z,22.23
2022-08-28T19:10:50.244Z,22.21
2022-08-28T19:13:16.988Z,22.20
2022-08-28T19:15:50.102Z,22.11
2022-08-28T19:18:17.466Z,21.96
2022-08-28T19:20:44.393Z,21.91
2022-08-28T19:23:15.512Z,21.71
2022-08-28T19:25:46.964Z,21.58
2022-08-28T19:28:14.043Z,21.68
2022-08-28T19:30:41.115Z,21.72
2022-08-28T19:33:07.998Z,21.67
2022-08-28T19:35:34.922Z,21.74
2022-08-28T19:38:02.087Z,21.76
2022-08-28T19:40:29.284Z,21.50
2022-08-28T19:42:56.185Z,21.56
2022-08-28T19:45:23.386Z,21.56
2022-08-28T19:47:50.245Z,21.53
2022-08-28T19:50:17.448Z,21.25
2022-08-28T19:52:44.941Z,21.26
2022-08-28T19:55:23.529Z,21.32
2022-08-28T20:00:21.065Z,21.47
2022-08-28T20:02:48.539Z,21.52
2022-08-28T20:05:15.453Z,21.50
2022-08-28T20:07:45.017Z,21.48
2022-08-28T20:10:12.408Z,21.49
2022-08-28T20:12:39.458Z,21.36
2022-08-28T20:15:16.026Z,21.35
2022-08-28T20:17:44.155Z,21.29
2022-08-28T20:20:18.692Z,21.31
2022-08-28T20:22:45.533Z,21.22
2022-08-28T20:25:12.316Z,21.13
2022-08-28T20:27:41.806Z,21.08
2022-08-28T20:30:10.663Z,20.95
2022-08-28T20:32:40.049Z,21.02
2022-08-28T20:35:08.830Z,21.03
2022-08-28T20:37:44.992Z,21.17
2022-08-28T20:40:14.738Z,21.17
2022-08-28T20:42:41.616Z,21.19
2022-08-28T20:45:09.274Z,20.96
2022-08-28T20:47:36.576Z,21.12
2022-08-28T20:50:04.185Z,21.12
2022-08-28T20:52:30.929Z,21.10
2022-08-28T20:54:58.297Z,20.98
2022-08-28T20:57:25.340Z,21.01
2022-08-28T20:59:54.324Z,20.90
2022-08-28T21:02:24.381Z,20.82
2022-08-28T21:04:52.069Z,20.73
2022-08-28T21:07:20.835Z,20.79
2022-08-28T21:10:04.330Z,20.75
2022-08-28T21:12:33.473Z,20.71
2022-08-28T21:15:00.374Z,20.72
2022-08-28T21:17:30.116Z,20.78
2022-08-28T21:20:11.529Z,20.76
2022-08-28T21:22:39.541Z,20.76
2022-08-28T21:25:08.375Z,20.80
2022-08-28T21:27:35.294Z,20.77
2022-08-28T21:30:02.460Z,20.75
2022-08-28T21:32:30.183Z,20.73
2022-08-28T21:34:56.936Z,20.70
2022-08-28T21:37:24.035Z,20.69
2022-08-28T21:39:50.942Z,20.65
2022-08-28T21:42:17.805Z,20.60
2022-08-28T21:44:51.189Z,20.53
2022-08-28T21:47:20.158Z,20.47
2022-08-28T21:49:51.037Z,20.48
2022-08-28T21:52:19.378Z,20.37
2022-08-28T21:54:46.336Z,20.35
2022-08-28T21:57:13.173Z,20.32
2022-08-28T21:59:40.131Z,20.32
2022-08-28T22:02:07.368Z,20.29
2022-08-28T22:04:34.858Z,20.33
2022-08-28T22:07:01.806Z,20.31
2022-08-28T22:09:29.206Z,20.26
2022-08-28T22:11:55.990Z,20.27
2022-08-28T22:14:25.246Z,20.29
2022-08-28T22:16:52.366Z,20.25
2022-08-28T22:19:19.224Z,20.18
2022-08-28T22:22:04.367Z,20.14
2022-08-28T22:24:31.081Z,20.18
2022-08-28T22:26:57.919Z,20.11
2022-08-28T22:29:25.039Z,20.02
2022-08-28T22:31:52.709Z,19.96
2022-08-28T22:34:19.562Z,19.98
2022-08-28T22:36:46.313Z,20.00
2022-08-28T22:39:13.000Z,20.03
2022-08-28T22:41:40.441Z,20.07
2022-08-28T22:44:07.858Z,20.04
2022-08-28T22:46:34.775Z,19.98
2022-08-28T22:49:01.658Z,19.87
2022-08-28T22:51:28.385Z,19.77
2022-08-28T22:53:55.916Z,19.79
2022-08-28T22:56:22.673Z,19.75
2022-08-28T22:58:49.404Z,19.78
2022-08-28T23:01:23.075Z,19.79
2022-08-28T23:03:50.270Z,19.79
2022-08-28T23:06:18.781Z,19.59
2022-08-28T23:08:45.545Z,19.29
2022-08-28T23:11:12.491Z,19.25
2022-08-28T23:13:39.920Z,19.09
2022-08-28T23:16:07.135Z,18.96
2022-08-28T23:18:51.667Z,19.02
2022-08-28T23:21:23.959Z,19.13
2022-08-28T23:23:53.270Z,19.05
2022-08-28T23:26:21.678Z,19.05
2022-08-28T23:28:48.640Z,19.00
2022-08-28T23:31:18.622Z,19.04
2022-08-28T23:33:46.150Z,19.02
2022-08-28T23:36:13.230Z,19.00
2022-08-28T23:38:43.039Z,18.90
2022-08-28T23:41:10.889Z,19.03
2022-08-28T23:43:38.988Z,19.05
2022-08-28T23:46:06.033Z,19.15
2022-08-28T23:48:33.206Z,19.25
2022-08-28T23:51:02.387Z,19.22
2022-08-28T23:53:29.307Z,19.17
2022-08-28T23:55:57.534Z,19.13
2022-08-28T23:58:28.472Z,19.18
